Time;durP1;ratioP1;P1;durP2;ratioP2;P2;SDS_P1;SDS_P2;PMS_P1;PMS_P2;Temp;Humidity;BMP_temperature;BMP_pressure;BME280_temperature;BME280_humidity;BME280_pressure;Samples;Min_cycle;Max_cycle;Signal;HPM_P1;HPM_P2
2024/05/02 00:02:08;;;;;;;3.97;2.20;;;16.70;1.00;;;;;;5218315;27;20067;-94
2024/05/02 00:04:35;;;;;;;4.85;2.40;;;16.80;1.00;;;;;;5202716;27;20087;-94
2024/05/02 00:07:03;;;;;;;7.30;2.60;;;16.80;1.00;;;;;;5185666;27;20384;-92
2024/05/02 00:09:30;;;;;;;5.97;2.38;;;16.80;1.00;;;;;;5185282;27;20063;-93
2024/05/02 00:11:57;;;;;;;4.25;2.65;;;16.80;1.00;;;;;;5185408;27;20150;-92
2024/05/02 00:14:25;;;;;;;4.63;2.40;;;16.80;1.00;;;;;;5185072;27;20148;-93
2024/05/02 00:16:53;;;;;;;8.45;2.97;;;16.80;1.00;;;;;;5185806;27;20528;-93
2024/05/02 00:19:20;;;;;;;5.07;2.63;;;16.80;1.00;;;;;;5214175;27;20060;-92
2024/05/02 00:21:47;;;;;;;6.93;3.03;;;16.80;1.00;;;;;;5213659;27;20060;-93
2024/05/02 00:24:16;;;;;;;6.75;2.70;;;16.70;1.00;;;;;;5184900;27;20065;-92
2024/05/02 00:26:43;;;;;;;3.97;2.58;;;16.70;1.00;;;;;;5158427;27;20173;-92
2024/05/02 00:29:10;;;;;;;4.38;2.67;;;16.60;1.00;;;;;;5184449;27;20068;-92
2024/05/02 00:31:37;;;;;;;8.77;2.72;;;16.60;1.00;;;;;;5184878;27;20071;-93
2024/05/02 00:34:06;;;;;;;5.20;2.67;;;16.60;1.00;;;;;;5184844;27;20068;-92
2024/05/02 00:36:33;;;;;;;6.30;2.97;;;16.60;1.00;;;;;;5157710;27;20084;-92
2024/05/02 00:39:01;;;;;;;4.45;2.88;;;16.60;1.00;;;;;;5184612;27;20505;-93
2024/05/02 00:41:29;;;;;;;4.88;2.67;;;16.60;1.00;;;;;;5184798;27;20063;-92
2024/05/02 00:43:56;;;;;;;4.70;2.85;;;16.60;1.00;;;;;;5184763;27;20528;-92
2024/05/02 00:46:24;;;;;;;6.97;2.50;;;16.60;1.00;;;;;;5184552;27;20064;-92
2024/05/02 00:48:52;;;;;;;7.13;2.90;;;16.60;1.00;;;;;;5158031;27;20485;-92
2024/05/02 00:51:20;;;;;;;9.10;2.90;;;16.60;1.00;;;;;;5184145;27;20063;-92
2024/05/02 00:53:49;;;;;;;7.90;3.40;;;16.60;1.00;;;;;;5184304;27;20077;-92
2024/05/02 00:56:17;;;;;;;6.60;2.63;;;16.60;1.00;;;;;;5184288;27;20060;-92
2024/05/02 00:58:46;;;;;;;5.50;2.75;;;16.60;1.00;;;;;;5184961;27;20056;-92
2024/05/02 01:01:13;;;;;;;6.60;2.72;;;16.60;1.00;;;;;;5211971;27;20153;-91
2024/05/02 01:03:41;;;;;;;6.28;3.15;;;16.50;1.00;;;;;;5184493;27;20123;-92
2024/05/02 01:06:09;;;;;;;5.43;2.67;;;16.50;1.00;;;;;;5212262;27;20071;-93
2024/05/02 01:08:36;;;;;;;5.72;2.67;;;16.50;1.00;;;;;;5184505;27;20060;-92
2024/05/02 01:11:03;;;;;;;4.60;2.65;;;16.50;1.00;;;;;;5185132;27;20091;-92
2024/05/02 01:13:30;;;;;;;7.50;2.80;;;16.60;1.00;;;;;;5184309;27;20079;-92
2024/05/02 01:15:57;;;;;;;4.22;2.30;;;16.60;1.00;;;;;;5184566;27;20060;-93
2024/05/02 01:18:25;;;;;;;5.10;2.40;;;16.60;1.00;;;;;;5184583;27;20067;-93
2024/05/02 01:20:53;;;;;;;3.60;2.30;;;16.60;1.00;;;;;;5184468;27;20064;-92
2024/05/02 01:23:20;;;;;;;5.72;2.40;;;16.60;1.00;;;;;;5184221;27;20127;-92
2024/05/02 01:25:47;;;;;;;3.40;2.30;;;16.60;1.00;;;;;;5183486;27;20084;-92
2024/05/02 01:28:14;;;;;;;5.18;2.47;;;16.60;1.00;;;;;;5184348;27;20059;-92
2024/05/02 01:30:42;;;;;;;5.10;2.45;;;16.60;1.00;;;;;;5183501;27;20116;-92
2024/05/02 01:33:09;;;;;;;5.82;2.50;;;16.50;1.00;;;;;;5183884;27;20082;-92
2024/05/02 01:35:36;;;;;;;4.95;2.78;;;16.50;1.00;;;;;;5184071;27;20082;-93
2024/05/02 01:38:03;;;;;;;4.97;2.70;;;16.50;1.00;;;;;;5157307;27;20082;-92
2024/05/02 01:40:30;;;;;;;5.13;2.92;;;16.50;1.00;;;;;;5184155;27;20063;-91
2024/05/02 01:42:57;;;;;;;6.53;2.85;;;16.40;1.00;;;;;;5157324;27;20056;-92
2024/05/02 01:45:24;;;;;;;4.45;2.55;;;16.50;1.00;;;;;;5184404;27;20362;-92
2024/05/02 01:47:51;;;;;;;5.45;2.50;;;16.40;1.00;;;;;;5157117;27;20082;-92
2024/05/02 01:50:19;;;;;;;8.55;2.90;;;16.40;1.00;;;;;;5183975;27;20079;-92
2024/05/02 01:52:46;;;;;;;4.15;2.47;;;16.50;1.00;;;;;;5157074;27;20060;-91
2024/05/02 01:55:13;;;;;;;3.88;2.72;;;16.50;1.00;;;;;;5183896;27;20060;-91
2024/05/02 01:57:40;;;;;;;5.75;2.88;;;16.50;1.00;;;;;;5183638;27;20067;-92
2024/05/02 02:00:07;;;;;;;5.63;2.60;;;16.40;1.00;;;;;;5183769;27;20069;-93
2024/05/02 02:02:34;;;;;;;4.10;2.80;;;16.40;1.00;;;;;;5183650;27;20071;-92
2024/05/02 02:05:01;;;;;;;4.80;2.90;;;16.40;1.00;;;;;;5156512;27;20483;-92
2024/05/02 02:07:29;;;;;;;4.15;2.80;;;16.40;1.00;;;;;;5183415;27;20061;-92
2024/05/02 02:09:56;;;;;;;4.93;2.58;;;16.40;1.00;;;;;;5157550;27;20114;-92
2024/05/02 02:12:24;;;;;;;6.57;2.58;;;16.40;1.00;;;;;;5183784;27;20068;-94
2024/05/02 02:14:51;;;;;;;5.50;2.90;;;16.30;1.00;;;;;;5183510;27;20079;-92
2024/05/02 02:17:18;;;;;;;7.40;2.90;;;16.30;1.00;;;;;;5183187;27;20067;-92
2024/05/02 02:19:45;;;;;;;10.02;2.80;;;16.30;1.00;;;;;;5183604;27;20147;-92
2024/05/02 02:22:12;;;;;;;5.05;2.70;;;16.30;1.00;;;;;;5183190;27;20077;-92
2024/05/02 02:24:39;;;;;;;7.20;2.70;;;16.30;1.00;;;;;;5183335;27;20059;-92
2024/05/02 02:27:07;;;;;;;4.07;2.97;;;16.30;1.00;;;;;;5183737;27;20055;-91
2024/05/02 02:29:34;;;;;;;8.02;3.08;;;16.40;1.00;;;;;;5184409;27;20514;-92
2024/05/02 02:32:01;;;;;;;6.40;2.85;;;16.40;1.00;;;;;;5183123;27;20064;-92
2024/05/02 02:34:32;;;;;;;6.75;3.28;;;16.40;1.00;;;;;;5157653;27;20384;-92
2024/05/02 02:36:59;;;;;;;4.60;3.00;;;16.40;1.00;;;;;;5156417;27;20069;-92
2024/05/02 02:39:26;;;;;;;4.25;2.80;;;16.40;1.00;;;;;;5183601;27;20061;-92
2024/05/02 02:41:53;;;;;;;4.75;2.92;;;16.40;1.00;;;;;;5182898;27;20163;-92
2024/05/02 02:44:21;;;;;;;4.38;2.85;;;16.40;1.00;;;;;;5214861;27;20059;-92
2024/05/02 02:46:48;;;;;;;6.60;2.85;;;16.40;1.00;;;;;;5186709;27;20086;-91
2024/05/02 02:49:15;;;;;;;6.72;3.08;;;16.40;1.00;;;;;;5186631;27;20091;-92
2024/05/02 02:51:42;;;;;;;5.30;2.83;;;16.40;1.00;;;;;;5159278;27;20080;-93
2024/05/02 02:54:09;;;;;;;5.88;3.40;;;16.40;1.00;;;;;;5186110;27;20059;-92
2024/05/02 02:56:36;;;;;;;6.95;3.20;;;16.40;1.00;;;;;;5186359;27;20059;-92
2024/05/02 02:59:03;;;;;;;5.88;3.28;;;16.30;1.00;;;;;;5159475;27;20148;-92
2024/05/02 03:01:30;;;;;;;4.93;3.08;;;16.30;1.00;;;;;;5159093;27;20542;-92
2024/05/02 03:03:57;;;;;;;5.72;3.00;;;16.30;1.00;;;;;;5186466;27;20505;-92
2024/05/02 03:06:24;;;;;;;4.32;3.05;;;16.30;1.00;;;;;;5186216;27;20069;-93
2024/05/02 03:08:51;;;;;;;8.38;3.50;;;16.30;1.00;;;;;;5159096;27;20531;-92
2024/05/02 03:11:18;;;;;;;6.70;3.50;;;16.20;1.00;;;;;;5185932;27;20065;-92
2024/05/02 03:13:46;;;;;;;6.82;3.30;;;16.20;1.00;;;;;;5186032;27;20099;-92
2024/05/02 03:16:14;;;;;;;5.03;3.10;;;16.20;1.00;;;;;;5159314;27;20060;-92
2024/05/02 03:18:41;;;;;;;8.13;3.17;;;16.00;1.00;;;;;;5159212;27;20573;-92
2024/05/02 03:21:09;;;;;;;5.82;3.10;;;16.00;1.00;;;;;;5158974;27;20064;-92
2024/05/02 03:23:43;;;;;;;5.88;3.25;;;16.00;1.00;;;;;;5185820;27;20623;-92
2024/05/02 03:26:11;;;;;;;5.28;3.28;;;16.00;1.00;;;;;;5158741;27;20056;-93
2024/05/02 03:28:39;;;;;;;4.15;3.13;;;16.00;1.00;;;;;;5159107;27;20142;-94
2024/05/02 03:31:10;;;;;;;6.22;3.55;;;16.00;1.00;;;;;;5185883;27;20525;-93
2024/05/02 03:33:38;;;;;;;5.00;3.10;;;16.00;1.00;;;;;;5185224;27;20099;-92
2024/05/02 03:36:06;;;;;;;6.10;3.33;;;16.00;1.00;;;;;;5185636;27;20512;-94
2024/05/02 03:38:33;;;;;;;6.00;3.10;;;15.90;1.00;;;;;;5185651;27;20087;-93
2024/05/02 03:41:00;;;;;;;10.75;3.67;;;15.90;1.00;;;;;;5185789;27;20501;-93
2024/05/02 03:43:27;;;;;;;7.40;3.40;;;15.90;1.00;;;;;;5185708;27;20081;-93
2024/05/02 03:45:54;;;;;;;8.13;3.65;;;15.90;1.00;;;;;;5185740;27;20817;-93
2024/05/02 03:48:21;;;;;;;6.63;3.47;;;15.90;1.00;;;;;;5158861;27;20500;-92
2024/05/02 03:50:49;;;;;;;6.07;2.80;;;15.90;1.00;;;;;;5185179;27;20069;-93
2024/05/02 03:53:16;;;;;;;5.88;3.22;;;15.90;2.30;;;;;;5158530;27;20055;-93
2024/05/02 03:55:43;;;;;;;5.30;3.25;;;15.80;7.10;;;;;;5184891;27;20075;-93
2024/05/02 03:58:10;;;;;;;5.88;3.30;;;15.80;9.60;;;;;;5185433;27;20068;-93
2024/05/02 04:00:37;;;;;;;6.93;3.58;;;15.80;12.70;;;;;;5158666;27;20479;-93
2024/05/02 04:03:04;;;;;;;9.55;3.03;;;15.80;17.80;;;;;;5185441;27;20056;-92
2024/05/02 04:05:31;;;;;;;6.93;3.67;;;15.80;20.90;;;;;;5184850;27;20081;-93
2024/05/02 04:07:59;;;;;;;7.90;3.65;;;15.80;25.40;;;;;;5185720;27;20139;-92
2024/05/02 04:10:26;;;;;;;6.45;3.53;;;15.80;25.40;;;;;;5158702;27;20069;-93
2024/05/02 04:12:53;;;;;;;6.18;3.55;;;15.80;25.60;;;;;;5212567;27;20060;-92
2024/05/02 04:15:20;;;;;;;7.03;3.13;;;15.70;27.10;;;;;;5185708;27;20540;-92
2024/05/02 04:17:47;;;;;;;9.10;3.63;;;15.80;32.20;;;;;;5212075;27;20082;-93
2024/05/02 04:20:14;;;;;;;5.25;3.42;;;15.80;35.20;;;;;;5185222;27;20056;-92
2024/05/02 04:22:41;;;;;;;8.30;4.50;;;15.80;38.50;;;;;;5185340;27;20076;-92
2024/05/02 04:25:08;;;;;;;8.25;4.00;;;15.80;41.10;;;;;;5158218;27;20059;-92
2024/05/02 04:27:35;;;;;;;5.75;3.88;;;15.80;39.10;;;;;;5158284;27;20142;-92
2024/05/02 04:30:03;;;;;;;6.43;3.95;;;15.80;36.90;;;;;;5160875;27;20159;-92
2024/05/02 04:32:30;;;;;;;5.47;3.90;;;15.80;40.90;;;;;;5184526;27;20083;-92
2024/05/02 04:34:57;;;;;;;7.82;3.90;;;15.90;48.70;;;;;;5185080;27;20061;-92
2024/05/02 04:37:25;;;;;;;11.52;4.00;;;16.00;38.50;;;;;;5184446;27;20061;-92
2024/05/02 04:39:52;;;;;;;7.95;5.18;;;15.90;21.80;;;;;;5185087;27;20055;-92
2024/05/02 04:42:19;;;;;;;8.48;5.95;;;15.90;32.40;;;;;;5184701;27;20064;-92
2024/05/02 04:44:46;;;;;;;11.32;6.43;;;15.90;38.50;;;;;;5184973;27;20604;-92
2024/05/02 04:47:13;;;;;;;14.73;7.40;;;16.00;35.90;;;;;;5211771;27;20055;-92
2024/05/02 04:49:40;;;;;;;12.02;7.45;;;15.90;34.30;;;;;;5184827;27;20146;-94
2024/05/02 04:52:07;;;;;;;10.48;7.03;;;15.90;28.90;;;;;;5158403;27;20061;-92
2024/05/02 04:54:35;;;;;;;10.93;7.07;;;15.90;26.40;;;;;;5211727;27;20071;-94
2024/05/02 04:57:02;;;;;;;9.77;7.55;;;15.90;31.20;;;;;;5184605;27;20076;-93
2024/05/02 04:59:33;;;;;;;11.68;7.28;;;16.00;32.90;;;;;;5193196;27;20071;-92
2024/05/02 05:02:05;;;;;;;10.75;7.28;;;16.00;28.20;;;;;;5166879;27;20091;-92
2024/05/02 05:04:32;;;;;;;9.23;7.25;;;16.00;22.30;;;;;;5158777;27;20616;-92
2024/05/02 05:06:59;;;;;;;13.27;7.28;;;16.10;14.40;;;;;;5181832;27;20087;-92
2024/05/02 05:09:26;;;;;;;9.82;7.75;;;16.10;16.70;;;;;;5183668;27;20102;-92
2024/05/02 05:11:53;;;;;;;8.98;6.55;;;16.10;20.90;;;;;;5184215;27;20086;-93
2024/05/02 05:14:20;;;;;;;9.48;7.40;;;16.10;19.30;;;;;;5183984;27;20075;-93
2024/05/02 05:16:47;;;;;;;7.40;6.40;;;16.00;9.50;;;;;;5183931;27;20099;-94
2024/05/02 05:19:14;;;;;;;8.15;6.60;;;16.00;1.00;;;;;;5183676;27;20059;-94
2024/05/02 05:21:42;;;;;;;9.48;6.22;;;16.00;1.00;;;;;;5184020;27;20071;-94
2024/05/02 05:24:09;;;;;;;9.20;6.45;;;16.00;1.00;;;;;;5183359;27;20091;-92
2024/05/02 05:26:36;;;;;;;12.52;7.25;;;15.90;1.00;;;;;;5184142;27;20485;-92
2024/05/02 05:29:03;;;;;;;7.88;6.82;;;16.00;1.00;;;;;;5183930;27;20146;-92
2024/05/02 05:31:30;;;;;;;10.77;7.03;;;15.90;1.00;;;;;;5184036;27;20064;-92
2024/05/02 05:33:57;;;;;;;8.77;7.10;;;16.00;2.50;;;;;;5183291;27;20068;-93
2024/05/02 05:36:25;;;;;;;12.38;7.38;;;16.00;7.50;;;;;;5183732;27;20075;-92
2024/05/02 05:38:52;;;;;;;10.48;7.68;;;16.00;12.40;;;;;;5156591;27;20083;-92
2024/05/02 05:41:21;;;;;;;10.63;7.63;;;16.10;11.30;;;;;;5156318;27;20150;-92
2024/05/02 05:43:48;;;;;;;13.35;8.05;;;16.10;10.90;;;;;;5183916;27;20061;-92
2024/05/02 05:46:15;;;;;;;9.40;6.93;;;16.10;10.90;;;;;;5156562;27;20069;-92
2024/05/02 05:48:46;;;;;;;12.68;7.78;;;16.10;5.20;;;;;;5157113;27;20072;-92
2024/05/02 05:51:13;;;;;;;10.25;7.63;;;16.10;1.00;;;;;;5183199;27;20114;-92
2024/05/02 05:53:40;;;;;;;10.93;7.72;;;16.10;7.90;;;;;;5183013;27;20453;-93
2024/05/02 05:56:07;;;;;;;9.13;7.90;;;16.00;14.10;;;;;;5156160;27;20078;-93
2024/05/02 05:58:34;;;;;;;9.85;8.35;;;16.10;15.60;;;;;;5156181;27;20060;-93
2024/05/02 06:01:01;;;;;;;11.45;9.40;;;16.10;1.00;;;;;;5183291;27;20064;-92
2024/05/02 06:03:32;;;;;;;11.20;8.10;;;16.10;2.70;;;;;;5155237;27;20079;-90
2024/05/02 06:05:59;;;;;;;11.85;8.85;;;16.10;14.70;;;;;;5210285;27;20072;-93
2024/05/02 06:08:26;;;;;;;9.23;7.63;;;16.10;18.60;;;;;;5183040;27;20063;-92
2024/05/02 06:10:58;;;;;;;10.15;5.95;;;16.10;12.40;;;;;;5182468;27;20103;-92
2024/05/02 06:13:25;;;;;;;8.75;4.80;;;16.20;1.10;;;;;;5183195;27;20088;-92
2024/05/02 06:15:52;;;;;;;11.57;5.65;;;16.20;3.20;;;;;;5143178;27;20067;-92
2024/05/02 06:18:20;;;;;;;4.55;3.50;;;16.20;1.00;;;;;;5185226;27;20159;-92
2024/05/02 06:20:46;;;;;;;4.53;3.05;;;16.20;2.00;;;;;;5159327;27;20065;-91
2024/05/02 06:23:14;;;;;;;5.35;2.60;;;16.20;1.00;;;;;;5185937;27;20064;-91
2024/05/02 06:25:41;;;;;;;3.58;2.67;;;16.10;1.00;;;;;;5186497;27;20075;-92
2024/05/02 06:28:08;;;;;;;4.88;2.90;;;16.10;1.00;;;;;;5186560;27;20478;-93
2024/05/02 06:30:39;;;;;;;4.72;3.35;;;16.10;1.00;;;;;;5186265;27;20409;-92
2024/05/02 06:33:06;;;;;;;7.68;3.08;;;16.00;1.00;;;;;;5158938;27;20063;-92
2024/05/02 06:35:36;;;;;;;8.20;3.53;;;16.10;1.00;;;;;;5159709;27;20060;-92
2024/05/02 06:38:03;;;;;;;4.57;3.70;;;16.10;1.00;;;;;;5186737;27;20544;-90
2024/05/02 06:40:31;;;;;;;7.63;4.38;;;16.00;1.00;;;;;;5159266;27;20102;-93
2024/05/02 06:42:58;;;;;;;4.38;2.75;;;16.00;1.00;;;;;;5160196;27;20083;-91
2024/05/02 06:45:25;;;;;;;7.65;6.85;;;16.10;1.00;;;;;;5214405;27;20056;-92
2024/05/02 06:47:54;;;;;;;4.07;3.10;;;16.10;1.00;;;;;;5187701;27;20364;-91
2024/05/02 06:50:21;;;;;;;4.13;2.80;;;16.20;1.00;;;;;;5186923;27;20095;-93
2024/05/02 06:52:48;;;;;;;3.97;2.70;;;16.20;1.00;;;;;;5186860;27;20095;-93
2024/05/02 06:55:17;;;;;;;5.32;3.00;;;16.30;1.00;;;;;;5180272;27;20075;-95
2024/05/02 06:57:45;;;;;;;4.60;2.90;;;16.30;1.00;;;;;;5159311;27;20059;-92
2024/05/02 07:00:12;;;;;;;5.85;2.83;;;16.40;1.00;;;;;;5170727;27;20071;-91
2024/05/02 07:02:39;;;;;;;4.70;2.55;;;16.40;1.00;;;;;;5181330;27;20097;-91
2024/05/02 07:05:07;;;;;;;7.68;2.80;;;16.40;1.00;;;;;;5156234;27;20154;-91
2024/05/02 07:07:34;;;;;;;5.07;2.30;;;16.40;1.00;;;;;;5212750;27;20059;-91
2024/05/02 07:10:00;;;;;;;6.53;2.45;;;16.40;1.00;;;;;;5158213;27;20577;-90
2024/05/02 07:12:28;;;;;;;7.82;2.70;;;16.40;1.00;;;;;;5185734;27;20068;-92
2024/05/02 07:14:55;;;;;;;4.13;2.17;;;16.50;1.00;;;;;;5158585;27;20060;-92
2024/05/02 07:17:22;;;;;;;6.95;1.70;;;16.60;1.00;;;;;;5158059;27;20056;-92
2024/05/02 07:19:49;;;;;;;5.55;1.50;;;16.60;1.00;;;;;;5212010;27;20455;-91
2024/05/02 07:22:16;;;;;;;3.75;2.03;;;16.70;1.00;;;;;;5185145;27;20063;-92
2024/05/02 07:24:43;;;;;;;10.88;4.38;;;16.60;1.00;;;;;;5180467;27;20225;-91
2024/05/02 07:27:11;;;;;;;11.02;5.47;;;16.70;1.00;;;;;;5185496;27;20129;-92
2024/05/02 07:29:38;;;;;;;13.77;7.53;;;16.60;1.00;;;;;;5184427;27;20079;-91
2024/05/02 07:32:05;;;;;;;17.85;9.15;;;16.70;1.00;;;;;;5157554;27;20427;-94
2024/05/02 07:34:32;;;;;;;17.75;9.85;;;16.80;1.00;;;;;;5157928;27;20423;-92
2024/05/02 07:36:59;;;;;;;19.05;10.40;;;16.90;1.00;;;;;;5185540;27;20082;-92
2024/05/02 07:39:28;;;;;;;16.92;9.13;;;17.00;1.00;;;;;;5158177;27;20091;-92
2024/05/02 07:41:55;;;;;;;14.35;7.63;;;17.10;1.00;;;;;;5158197;27;20086;-93
2024/05/02 07:44:24;;;;;;;8.55;4.20;;;17.20;1.00;;;;;;5185553;27;20147;-92
2024/05/02 07:46:53;;;;;;;6.97;3.65;;;17.40;99.90;;;;;;5193719;27;20124;-93
2024/05/02 07:49:20;;;;;;;6.30;3.15;;;17.50;99.90;;;;;;5169178;27;20068;-93
2024/05/02 07:51:49;;;;;;;6.47;3.40;;;17.60;99.90;;;;;;5184944;27;20085;-92
2024/05/02 07:54:16;;;;;;;4.65;2.80;;;17.70;99.90;;;;;;5184547;27;20060;-93
2024/05/02 07:56:43;;;;;;;5.95;2.90;;;17.80;99.90;;;;;;5212169;27;20086;-93
2024/05/02 07:59:13;;;;;;;6.40;3.33;;;17.80;99.90;;;;;;5185427;27;20060;-94
2024/05/02 08:01:40;;;;;;;7.32;3.33;;;17.90;99.90;;;;;;5184231;27;20064;-93
2024/05/02 08:04:07;;;;;;;8.15;3.40;;;18.00;99.90;;;;;;5212205;27;20082;-92
2024/05/02 08:06:36;;;;;;;7.35;3.78;;;18.10;99.90;;;;;;5184731;27;20141;-92
2024/05/02 08:09:03;;;;;;;7.03;4.50;;;18.20;99.90;;;;;;5184043;27;20064;-95
2024/05/02 08:11:31;;;;;;;8.43;4.40;;;18.30;99.90;;;;;;5211347;27;20210;-94
2024/05/02 08:13:58;;;;;;;8.15;4.68;;;18.40;99.90;;;;;;5184393;27;20060;-93
2024/05/02 08:16:25;;;;;;;9.52;4.63;;;18.50;99.90;;;;;;5185560;27;20080;-94
2024/05/02 08:18:52;;;;;;;10.00;3.90;;;18.70;99.90;;;;;;5211825;27;20094;-92
2024/05/02 08:21:19;;;;;;;5.55;3.28;;;18.80;99.90;;;;;;5184705;27;20071;-91
2024/05/02 08:23:46;;;;;;;6.18;3.25;;;18.90;99.90;;;;;;5185035;27;20064;-93
2024/05/02 08:26:13;;;;;;;6.30;3.83;;;18.80;99.90;;;;;;5183696;27;20075;-92
2024/05/02 08:28:41;;;;;;;9.18;4.25;;;18.80;99.90;;;;;;5184668;27;20079;-92
2024/05/02 08:31:08;;;;;;;9.02;4.28;;;18.90;99.90;;;;;;5184255;27;20071;-91
2024/05/02 08:33:35;;;;;;;10.23;4.72;;;18.80;99.90;;;;;;5158218;27;20060;-93
2024/05/02 08:36:03;;;;;;;6.60;3.47;;;18.70;99.90;;;;;;5183793;27;20072;-93
2024/05/02 08:38:30;;;;;;;9.13;5.18;;;18.80;87.10;;;;;;5211646;27;20061;-91
2024/05/02 08:40:57;;;;;;;13.50;8.60;;;18.70;95.70;;;;;;5182772;27;20079;-92
2024/05/02 08:43:25;;;;;;;16.92;9.70;;;18.80;99.90;;;;;;5184100;27;20155;-93
2024/05/02 08:45:55;;;;;;;15.82;9.07;;;18.80;47.00;;;;;;5183922;27;20068;-90
2024/05/02 08:48:23;;;;;;;14.30;7.15;;;18.90;90.90;;;;;;5184491;27;20067;-93
2024/05/02 08:50:51;;;;;;;14.70;6.47;;;19.10;91.60;;;;;;5184291;27;20064;-92
2024/05/02 08:53:18;;;;;;;24.10;7.20;;;19.30;55.30;;;;;;5183777;27;20185;-91
2024/05/02 08:55:49;;;;;;;23.80;12.73;;;19.50;1.00;;;;;;5183307;27;20539;-91
2024/05/02 08:58:16;;;;;;;23.50;14.30;;;19.60;1.00;;;;;;5183462;27;20086;-93
2024/05/02 09:00:44;;;;;;;20.55;11.88;;;19.90;1.00;;;;;;5157049;27;20552;-93
2024/05/02 09:03:11;;;;;;;18.92;9.98;;;20.20;1.00;;;;;;5183803;27;20060;-91
2024/05/02 09:05:40;;;;;;;7.07;3.35;;;20.40;1.00;;;;;;5183850;27;20552;-93
2024/05/02 09:08:08;;;;;;;8.57;3.25;;;20.40;1.00;;;;;;5183961;27;20067;-91
2024/05/02 09:10:35;;;;;;;10.13;2.53;;;20.40;1.00;;;;;;5183767;27;20076;-93
2024/05/02 09:13:03;;;;;;;5.57;2.45;;;20.30;1.00;;;;;;5183130;27;20079;-93
2024/05/02 09:15:30;;;;;;;4.07;1.92;;;20.10;1.00;;;;;;5210613;27;20075;-92
2024/05/02 09:17:59;;;;;;;9.02;2.60;;;19.90;1.00;;;;;;5183666;27;20064;-93
2024/05/02 09:20:26;;;;;;;11.73;5.18;;;19.70;1.00;;;;;;5207673;27;20060;-93
2024/05/02 09:22:53;;;;;;;5.78;2.55;;;19.80;1.00;;;;;;5156959;27;20090;-93
2024/05/02 09:25:20;;;;;;;9.85;3.00;;;19.70;1.00;;;;;;5165929;27;20073;-93
2024/05/02 09:27:48;;;;;;;8.80;2.30;;;19.70;1.00;;;;;;5183616;27;20087;-93
2024/05/02 09:30:15;;;;;;;7.50;2.33;;;19.60;1.00;;;;;;5183102;27;20056;-93
2024/05/02 09:32:42;;;;;;;7.68;2.05;;;19.40;1.00;;;;;;5183535;27;20138;-94
2024/05/02 09:35:09;;;;;;;4.88;1.70;;;19.40;1.00;;;;;;5211986;27;20092;-95
2024/05/02 09:37:44;;;;;;;5.25;1.80;;;19.30;1.00;;;;;;5214439;27;20059;-93
2024/05/02 09:40:12;;;;;;;4.90;2.10;;;19.20;1.00;;;;;;5155845;27;20086;-94
2024/05/02 09:42:42;;;;;;;12.23;2.00;;;19.40;1.00;;;;;;5184203;27;20060;-94
2024/05/02 09:45:09;;;;;;;4.55;2.25;;;19.60;1.00;;;;;;5183318;27;20146;-94
2024/05/02 09:47:44;;;;;;;8.02;1.90;;;19.50;1.00;;;;;;5183551;27;20493;-94
2024/05/02 09:50:18;;;;;;;5.88;2.20;;;19.20;1.00;;;;;;5183357;27;20086;-94
2024/05/02 09:52:46;;;;;;;7.15;1.70;;;18.90;1.00;;;;;;5185270;27;20078;-95
2024/05/02 09:55:13;;;;;;;11.13;2.15;;;18.60;1.00;;;;;;5186689;27;20075;-94
2024/05/02 09:57:42;;;;;;;5.93;1.90;;;18.30;1.00;;;;;;5214195;27;20059;-94
2024/05/02 10:00:12;;;;;;;4.45;1.70;;;18.20;11.50;;;;;;5159450;27;20098;-94
2024/05/02 10:02:40;;;;;;;7.70;2.28;;;18.00;19.60;;;;;;5160359;27;20088;-93
2024/05/02 10:05:08;;;;;;;10.95;2.78;;;17.80;99.90;;;;;;5187127;27;20082;-92
2024/05/02 10:07:40;;;;;;;10.15;2.10;;;17.60;99.90;;;;;;5186431;27;20082;-92
2024/05/02 10:10:13;;;;;;;12.60;2.85;;;17.30;99.90;;;;;;5159751;27;20059;-91
2024/05/02 10:12:48;;;;;;;9.45;2.83;;;17.10;1.00;;;;;;5159641;27;20056;-90
2024/05/02 10:15:17;;;;;;;13.32;3.30;;;16.80;1.00;;;;;;5213612;27;20071;-90
2024/05/02 10:17:45;;;;;;;16.75;3.10;;;16.70;1.00;;;;;;5160032;27;20082;-90
2024/05/02 10:20:17;;;;;;;8.98;2.58;;;16.60;1.00;;;;;;5186648;27;20395;-88
2024/05/02 10:22:44;;;;;;;7.63;2.33;;;16.60;1.00;;;;;;5186376;27;20533;-92
2024/05/02 10:25:11;;;;;;;5.63;2.15;;;16.60;1.00;;;;;;5186045;27;20107;-93
2024/05/02 10:27:39;;;;;;;8.15;3.00;;;16.60;1.00;;;;;;5214204;27;20096;-91
2024/05/02 10:30:07;;;;;;;11.27;3.22;;;16.80;1.00;;;;;;5186707;27;20056;-90
2024/05/02 10:32:43;;;;;;;9.10;3.35;;;17.00;1.00;;;;;;5159132;27;20060;-91
2024/05/02 10:35:17;;;;;;;6.82;2.95;;;17.10;1.00;;;;;;5215193;27;20085;-91
2024/05/02 10:37:47;;;;;;;3.85;1.90;;;17.50;1.00;;;;;;5186818;27;20097;-94
2024/05/02 10:40:16;;;;;;;5.88;1.75;;;17.80;1.00;;;;;;5187513;27;20932;-94
2024/05/02 10:42:44;;;;;;;5.28;2.45;;;18.00;1.00;;;;;;5187926;27;20081;-94
2024/05/02 10:45:11;;;;;;;6.30;2.30;;;17.90;1.00;;;;;;5160324;27;20060;-95
2024/05/02 10:47:39;;;;;;;7.18;2.80;;;17.90;99.90;;;;;;5186412;27;20548;-91
2024/05/02 10:50:06;;;;;;;7.60;2.33;;;17.90;99.90;;;;;;5185812;27;20056;-91
2024/05/02 10:52:35;;;;;;;7.00;2.20;;;17.90;1.00;;;;;;5185918;27;20150;-91
2024/05/02 10:55:03;;;;;;;5.75;2.47;;;18.00;1.00;;;;;;5186273;27;20512;-92
2024/05/02 10:57:30;;;;;;;5.47;2.35;;;18.10;99.90;;;;;;5193192;27;20566;-91
2024/05/02 10:59:57;;;;;;;7.50;2.60;;;18.30;99.90;;;;;;5191624;27;20082;-91
2024/05/02 11:02:25;;;;;;;6.22;2.08;;;18.40;99.90;;;;;;5199675;27;20064;-90
2024/05/02 11:04:53;;;;;;;6.68;2.28;;;18.60;99.90;;;;;;5185239;27;20095;-90
2024/05/02 11:07:20;;;;;;;7.50;2.60;;;18.80;99.90;;;;;;5212359;27;20060;-92
2024/05/02 11:09:47;;;;;;;6.88;2.53;;;18.80;99.90;;;;;;5218372;27;20114;-92
2024/05/02 11:12:23;;;;;;;7.50;2.15;;;19.00;99.90;;;;;;5213489;27;20551;-91
2024/05/02 11:14:52;;;;;;;7.13;1.95;;;19.10;99.90;;;;;;5215545;27;20160;-92
2024/05/02 11:17:19;;;;;;;6.70;2.30;;;19.20;99.90;;;;;;5186845;27;20087;-92
2024/05/02 11:19:50;;;;;;;8.77;2.85;;;19.10;99.90;;;;;;5186743;27;20055;-91
2024/05/02 11:22:18;;;;;;;6.75;2.15;;;19.10;99.90;;;;;;5186360;27;20455;-92
2024/05/02 11:24:56;;;;;;;6.20;2.40;;;19.20;91.80;;;;;;5159334;27;20067;-91
2024/05/02 11:27:23;;;;;;;4.43;1.95;;;19.20;99.90;;;;;;5185644;27;20059;-91
2024/05/02 11:29:50;;;;;;;5.85;2.38;;;19.10;99.90;;;;;;5186067;27;20144;-92
2024/05/02 11:32:18;;;;;;;8.02;2.35;;;19.10;99.90;;;;;;5185910;27;20063;-90
2024/05/02 11:34:45;;;;;;;5.78;2.58;;;18.90;99.90;;;;;;5185340;27;20538;-93
2024/05/02 11:37:12;;;;;;;9.02;2.50;;;19.00;99.90;;;;;;5157222;27;20076;-91
2024/05/02 11:39:39;;;;;;;6.72;2.65;;;19.00;99.90;;;;;;5199260;27;20427;-92
2024/05/02 11:42:06;;;;;;;6.72;2.25;;;18.90;99.90;;;;;;5185320;27;20509;-92
2024/05/02 11:44:33;;;;;;;7.90;2.80;;;18.90;99.90;;;;;;5185208;27;20060;-91
2024/05/02 11:47:00;;;;;;;7.53;2.40;;;18.90;99.90;;;;;;5185256;27;20086;-91
2024/05/02 11:49:28;;;;;;;4.80;2.20;;;18.80;99.90;;;;;;5185534;27;20061;-92
2024/05/02 11:51:55;;;;;;;19.48;3.20;;;18.80;99.90;;;;;;5184887;27;20160;-92
2024/05/02 11:54:22;;;;;;;4.38;2.50;;;18.60;99.90;;;;;;5211916;27;20387;-93
2024/05/02 11:56:50;;;;;;;10.95;3.15;;;18.50;99.90;;;;;;5185188;27;20059;-92
2024/05/02 11:59:19;;;;;;;5.70;2.55;;;18.40;99.90;;;;;;5185295;27;20060;-92
2024/05/02 12:01:47;;;;;;;6.72;2.83;;;18.20;99.90;;;;;;5212787;27;20092;-92
2024/05/02 12:04:14;;;;;;;8.52;2.10;;;18.10;99.90;;;;;;5184931;27;20072;-93
2024/05/02 12:06:41;;;;;;;10.13;2.53;;;17.90;99.90;;;;;;5184886;27;20076;-93
2024/05/02 12:09:09;;;;;;;6.18;2.33;;;17.80;99.90;;;;;;5212036;27;20082;-93
2024/05/02 12:11:36;;;;;;;9.40;2.28;;;17.70;99.90;;;;;;5185025;27;20064;-90
2024/05/02 12:14:04;;;;;;;7.80;1.98;;;17.70;1.00;;;;;;5185216;27;20075;-92
2024/05/02 12:16:36;;;;;;;7.50;2.47;;;17.60;99.90;;;;;;5211734;27;20082;-92
2024/05/02 12:19:04;;;;;;;7.25;1.90;;;17.50;99.90;;;;;;5184519;27;20475;-91
2024/05/02 12:21:31;;;;;;;8.65;2.50;;;17.50;1.00;;;;;;5184476;27;20092;-92
2024/05/02 12:24:01;;;;;;;7.88;2.65;;;17.50;1.00;;;;;;5211759;27;20073;-92
2024/05/02 12:26:29;;;;;;;7.85;2.17;;;17.50;1.00;;;;;;5210426;27;20098;-93
2024/05/02 12:28:57;;;;;;;5.95;1.92;;;17.40;1.00;;;;;;5182380;27;20094;-92
2024/05/02 12:31:24;;;;;;;6.18;1.85;;;17.50;99.90;;;;;;5157469;27;20065;-93
2024/05/02 12:33:51;;;;;;;7.57;1.95;;;17.80;1.00;;;;;;5144678;27;20078;-92
2024/05/02 12:36:18;;;;;;;9.57;1.20;;;18.20;1.00;;;;;;5184914;27;20068;-92
2024/05/02 12:38:45;;;;;;;6.95;1.00;;;18.60;99.90;;;;;;5157603;27;20084;-91
2024/05/02 12:41:27;;;;;;;4.83;1.00;;;18.80;99.90;;;;;;5187992;27;20063;-91
2024/05/02 12:43:54;;;;;;;6.63;1.35;;;18.90;58.20;;;;;;5184759;27;20090;-92
2024/05/02 12:46:21;;;;;;;5.07;1.00;;;18.80;32.60;;;;;;5183798;27;20084;-92
2024/05/02 12:48:50;;;;;;;4.75;0.93;;;19.00;20.80;;;;;;5185193;27;20082;-91
2024/05/02 12:51:19;;;;;;;4.22;1.23;;;19.00;1.40;;;;;;5184668;27;20117;-93
2024/05/02 12:53:47;;;;;;;4.60;1.17;;;19.20;17.90;;;;;;5184464;27;20060;-92